AirNav   Air Wisconsin Up To $57,000 Bonus
 
 777 users online  

XS90 Fentress Airpark
Fentress, Texas, USA

GOING TO FENTRESS?


FAA INFORMATION EFFECTIVE 02 JANUARY 2020

Location

FAA Identifier: XS90
Lat/Long: 29-46-05.8090N 097-46-31.0040W
29-46.096817N 097-46.516733W
29.7682803,-97.7752789
(estimated)
Elevation: 460 ft. / 140 m (estimated)
Variation: 07E (1985)
From city: 1 mile N of FENTRESS, TX
Time zone: UTC -6 (UTC -5 during Daylight Saving Time)
Zip code: 78644

Airport Operations

Airport use: Private use. Permission required prior to landing
Activation date: 06/1991
Control tower: no
ARTCC: HOUSTON CENTER
FSS: SAN ANGELO FLIGHT SERVICE STATION
Attendance: CONTINUOUS
Wind indicator: yes
Segmented circle: no

Airport Communications

WX AWOS-3PT at HYI (9 nm NW): PHONE 512-353-8005
WX ASOS at BAZ (14 nm W): 119.325 (830-629-7979)

Nearby radio navigation aids

VOR radial/distance  VOR name  Freq  Var
RNDr056/30.5RANDOLPH VORTAC112.3005E
SATr070/36.5SAN ANTONIO VORTAC116.8008E
CWKr193/38.8CENTEX VORTAC112.8006E

 
NDB name  Hdg/Dist  Freq  Var  ID
GARYS135/14.627207ERU .-. ..-

Airport Services

Runway Information

Runway 4/22

Dimensions: 3200 x 50 ft. / 975 x 15 m
Surface: asphalt
COMPACT BASE W/ TAR AND ASPH SFC.
RUNWAY 4  RUNWAY 22
Traffic pattern: leftleft

Airport Ownership and Management from official FAA records

Ownership: Privately-owned
Owner: PAUL ILLINGWORTH
PO BOX 337
FENTRESS, TX 78622
Phone 512-488-2214
Manager: PAUL ILLINGWORTH
PO BOX 337
FENTRESS, TX 78622
Phone 512-488-2214

Airport Operational Statistics

Aircraft based on the field: 2
Single engine airplanes: 2
    

Additional Remarks

SKYDIVING AND PAJA ON & INVOF ARPT DLY AND OCNL NIGHTS.
USED EXCLVLY FOR SKYDIVING OPS - NO UNAUTHORIZED USE IS PMTD.
FOR CD CTC AUSTIN APCH AT 512-269-7865.

Instrument Procedures

There are no published instrument procedures at XS90.

Some nearby airports with instrument procedures:

50R - Lockhart Municipal Airport (7 nm NE)
KHYI - San Marcos Regional Airport (9 nm NW)
KBAZ - New Braunfels Regional Airport (14 nm W)
KAUS - Austin-Bergstrom International Airport (26 nm N)
KRND - Randolph Air Force Base (30 nm SW)
 
Loc | Ops | Rwys | IFR | FBO | Links
Com | Nav | Svcs | Stats | Notes
Area around XS90 (Fentress Airpark)
 
Road maps at: MapQuest Bing Google
 
Aerial photo
WARNING: Photo may not be current or correct
Aerial photo of XS90 (Fentress Airpark)
Do you have a better or more recent aerial photo of Fentress Airpark that you would like to share? If so, please send us your photo.

 
Sectional chart

 
Airport distance calculator
Flying to Fentress Airpark? Find the distance to fly.

From to XS90

Sunrise and sunset
Times for 28-Jan-2020
 Local
(UTC-6)
 Zulu
(UTC)
Morning civil twilight06:5912:59
Sunrise07:2413:24
Sunset18:0400:04
Evening civil twilight18:2900:29

Current date and time
Zulu (UTC)  28-Jan-2020 07:00:29
Local (UTC-6)  28-Jan-2020 01:00:29
 
METAR
KHYI 
8nm NW 
280556Z AUTO 16013KT 10SM OVC018 14/12 A2994 RMK AO2 SLP133 T01440122 10172 20133 402110061 50000
KSEQ 
14nm SW 
280558Z AUTO 14007KT 10SM OVC015 14/12 A2997 RMK AO2 LTG DSNT N SLP148 T01380124 10176 20135 402060059 50001
KBAZ 
15nm W 
280651Z AUTO 14008KT 10SM BKN020 OVC025 15/12 A2990 RMK AO2 SLP121 T01500122
TAF
NOTAMs
Click for the latest NOTAMs
NOTAMs are issued by the DoD/FAA and will open in a separate window not controlled by AirNav.

 

 
 

Would you like to see your business listed on this page?

 If your business provides an interesting product or service to pilots, flight crews, aircraft, or users of the Fentress Airpark, you should consider listing it here.  To start the listing process, click on the button below
 
Add a business
 

Other Pages about Fentress Airpark

Update a link
 
Copyright © AirNav, LLC. All rights reserved. Privacy Policy  Contact